createdAt,value
2023-04-24T00:00:48.012Z,9.88
2023-04-24T00:03:29.003Z,9.80
2023-04-24T00:05:57.488Z,9.75
2023-04-24T00:08:25.337Z,9.72
2023-04-24T00:10:54.220Z,9.68
2023-04-24T00:13:21.990Z,9.63
2023-04-24T00:15:49.925Z,9.56
2023-04-24T00:18:17.986Z,9.51
2023-04-24T00:20:45.795Z,9.47
2023-04-24T00:23:13.898Z,9.42
2023-04-24T00:25:41.867Z,9.35
2023-04-24T00:28:09.660Z,9.29
2023-04-24T00:30:37.445Z,9.24
2023-04-24T00:33:05.349Z,9.19
2023-04-24T00:35:33.181Z,9.14
2023-04-24T00:38:01.304Z,9.10
2023-04-24T00:40:29.474Z,9.07
2023-04-24T00:42:57.664Z,9.04
2023-04-24T00:45:25.969Z,9.01
2023-04-24T00:47:54.689Z,8.99
2023-04-24T00:50:23.070Z,8.99
2023-04-24T00:52:52.138Z,8.99
2023-04-24T00:55:19.983Z,9.00
2023-04-24T00:57:49.730Z,9.00
2023-04-24T01:00:18.274Z,9.02
2023-04-24T01:02:47.192Z,9.04
2023-04-24T01:05:16.577Z,9.07
2023-04-24T01:07:46.753Z,9.13
2023-04-24T01:10:15.781Z,9.18
2023-04-24T01:12:43.624Z,9.23
2023-04-24T01:15:13.512Z,9.27
2023-04-24T01:17:43.095Z,9.28
2023-04-24T01:20:11.761Z,9.29
2023-04-24T01:22:39.537Z,9.28
2023-04-24T01:25:07.971Z,9.27
2023-04-24T01:27:35.887Z,9.25
2023-04-24T01:30:04.460Z,9.22
2023-04-24T01:32:32.467Z,9.21
2023-04-24T01:35:00.610Z,9.19
2023-04-24T01:37:28.420Z,9.17
2023-04-24T01:39:56.469Z,9.15
2023-04-24T01:42:24.637Z,9.14
2023-04-24T01:44:52.772Z,9.13
2023-04-24T01:47:21.046Z,9.10
2023-04-24T01:49:49.577Z,9.07
2023-04-24T01:52:18.804Z,9.04
2023-04-24T01:54:46.549Z,8.99
2023-04-24T01:57:15.646Z,8.95
2023-04-24T01:59:43.839Z,8.90
2023-04-24T02:02:11.758Z,8.85
2023-04-24T02:04:40.484Z,8.79
2023-04-24T02:07:09.195Z,8.75
2023-04-24T02:09:36.950Z,8.70
2023-04-24T02:12:04.655Z,8.65
2023-04-24T02:14:32.507Z,8.61
2023-04-24T02:17:00.275Z,8.55
2023-04-24T02:19:28.050Z,8.50
2023-04-24T02:21:55.884Z,8.46
2023-04-24T02:24:23.734Z,8.44
2023-04-24T02:26:51.955Z,8.42
2023-04-24T02:29:19.737Z,8.39
2023-04-24T02:31:47.487Z,8.35
2023-04-24T02:34:15.883Z,8.32
2023-04-24T02:36:43.871Z,8.29
2023-04-24T02:39:11.610Z,8.26
2023-04-24T02:41:40.328Z,8.22
2023-04-24T02:44:08.120Z,8.18
2023-04-24T02:46:35.839Z,8.12
2023-04-24T02:49:03.646Z,8.06
2023-04-24T02:51:31.957Z,7.99
2023-04-24T02:53:59.781Z,7.94
2023-04-24T02:56:27.830Z,7.88
2023-04-24T02:58:56.496Z,7.82
2023-04-24T03:01:24.321Z,7.78
2023-04-24T03:03:52.313Z,7.75
2023-04-24T03:06:20.185Z,7.72
2023-04-24T03:08:48.517Z,7.69
2023-04-24T03:11:16.353Z,7.67
2023-04-24T03:13:44.078Z,7.64
2023-04-24T03:16:12.012Z,7.63
2023-04-24T03:18:39.936Z,7.60
2023-04-24T03:21:08.146Z,7.60
2023-04-24T03:23:36.204Z,7.60
2023-04-24T03:26:04.073Z,7.60
2023-04-24T03:28:32.062Z,7.60
2023-04-24T03:31:02.137Z,7.60
2023-04-24T03:33:33.129Z,7.61
2023-04-24T03:36:02.817Z,7.62
2023-04-24T03:38:37.629Z,7.63
2023-04-24T03:41:20.105Z,7.66
2023-04-24T03:43:51.499Z,7.73
2023-04-24T03:46:19.308Z,7.80
2023-04-24T03:48:52.910Z,7.90
2023-04-24T03:51:22.931Z,8.01
2023-04-24T03:53:52.120Z,8.12
2023-04-24T03:56:22.000Z,8.24
2023-04-24T03:58:49.980Z,8.37
2023-04-24T04:01:18.284Z,8.51
2023-04-24T04:03:53.585Z,8.69
2023-04-24T04:06:24.072Z,8.88
2023-04-24T04:08:53.329Z,9.06
2023-04-24T04:11:21.124Z,9.23
2023-04-24T04:13:49.073Z,9.40
2023-04-24T04:16:18.504Z,9.55
2023-04-24T04:18:46.418Z,9.71
2023-04-24T04:21:14.399Z,9.85
2023-04-24T04:23:42.829Z,9.98
2023-04-24T04:26:15.948Z,10.11
2023-04-24T04:28:54.145Z,10.22
2023-04-24T04:31:22.103Z,10.32
2023-04-24T04:33:50.697Z,10.41
2023-04-24T04:36:18.444Z,10.51
2023-04-24T04:38:48.428Z,10.61
2023-04-24T04:41:42.138Z,10.73
2023-04-24T04:44:11.856Z,10.82
2023-04-24T04:46:39.888Z,10.92
2023-04-24T04:49:17.795Z,11.03
2023-04-24T04:51:46.862Z,11.12
2023-04-24T04:54:14.893Z,11.20
2023-04-24T04:56:42.704Z,11.28
2023-04-24T04:59:12.170Z,11.36
2023-04-24T05:01:42.278Z,11.45
2023-04-24T05:04:11.689Z,11.54
2023-04-24T05:06:39.672Z,11.63
2023-04-24T05:09:08.519Z,11.72
2023-04-24T05:11:52.259Z,11.82
2023-04-24T05:14:20.122Z,11.92
2023-04-24T05:16:47.846Z,12.02
2023-04-24T05:19:15.817Z,12.13
2023-04-24T05:21:43.681Z,12.25
2023-04-24T05:24:12.204Z,12.37
2023-04-24T05:26:59.646Z,12.52
2023-04-24T05:29:32.755Z,12.68
2023-04-24T05:32:01.996Z,12.83
2023-04-24T05:34:31.147Z,13.00
2023-04-24T05:36:59.666Z,13.15
2023-04-24T05:39:27.786Z,13.30
2023-04-24T05:41:59.290Z,13.43
2023-04-24T05:44:27.145Z,13.55
2023-04-24T05:46:56.600Z,13.67
2023-04-24T05:49:24.785Z,13.83
2023-04-24T05:51:52.843Z,14.01
2023-04-24T05:54:20.610Z,14.17
2023-04-24T05:56:48.505Z,14.32
2023-04-24T05:59:20.829Z,14.45
2023-04-24T06:01:49.324Z,14.58
2023-04-24T06:04:19.765Z,14.71
2023-04-24T06:06:51.733Z,14.83
2023-04-24T06:09:19.636Z,14.97
2023-04-24T06:11:47.613Z,15.07
2023-04-24T06:14:15.576Z,15.14
2023-04-24T06:17:03.826Z,15.27
2023-04-24T06:19:36.298Z,15.39
2023-04-24T06:22:04.700Z,15.51
2023-04-24T06:24:32.889Z,15.64
2023-04-24T06:27:01.555Z,15.74
2023-04-24T06:29:29.464Z,15.83
2023-04-24T06:31:57.275Z,15.93
2023-04-24T06:34:25.101Z,16.02
2023-04-24T06:36:52.965Z,16.14
2023-04-24T06:39:20.819Z,16.25
2023-04-24T06:41:48.739Z,16.36
2023-04-24T06:44:20.881Z,16.51
2023-04-24T06:46:48.720Z,16.66
2023-04-24T06:49:17.246Z,16.82
2023-04-24T06:51:45.086Z,16.98
2023-04-24T06:54:12.838Z,17.08
2023-04-24T06:56:40.795Z,17.16
2023-04-24T06:59:08.543Z,17.26
2023-04-24T07:01:36.405Z,17.36
2023-04-24T07:04:04.358Z,17.47
2023-04-24T07:06:32.770Z,17.61
2023-04-24T07:09:01.348Z,17.71
2023-04-24T07:11:30.401Z,17.79
2023-04-24T07:13:58.251Z,17.81
2023-04-24T07:16:26.914Z,17.79
2023-04-24T07:18:54.688Z,17.75
2023-04-24T07:21:22.453Z,17.75
2023-04-24T07:23:50.318Z,17.78
2023-04-24T07:26:18.303Z,17.84
2023-04-24T07:28:46.407Z,17.89
2023-04-24T07:31:15.903Z,17.94
2023-04-24T07:33:43.785Z,18.02
2023-04-24T07:36:16.445Z,18.12
2023-04-24T07:38:44.303Z,18.23
2023-04-24T07:41:12.733Z,18.34
2023-04-24T07:43:40.617Z,18.44
2023-04-24T07:46:09.452Z,18.60
2023-04-24T07:48:37.925Z,18.81
2023-04-24T07:51:05.742Z,19.00
2023-04-24T07:53:33.541Z,19.12
2023-04-24T07:56:01.254Z,19.22
2023-04-24T07:58:29.177Z,19.36
2023-04-24T08:00:56.940Z,19.54
2023-04-24T08:03:26.002Z,19.64
2023-04-24T08:05:54.031Z,19.68
2023-04-24T08:08:23.083Z,19.68
2023-04-24T08:10:51.528Z,19.68
2023-04-24T08:13:19.248Z,19.75
2023-04-24T08:15:47.515Z,19.86
2023-04-24T08:18:16.758Z,19.94
2023-04-24T08:20:44.836Z,19.97
2023-04-24T08:23:12.558Z,20.07
2023-04-24T08:25:40.609Z,20.25
2023-04-24T08:28:10.761Z,20.47
2023-04-24T08:30:39.520Z,20.64
2023-04-24T08:33:08.278Z,20.83
2023-04-24T08:35:36.386Z,21.04
2023-04-24T08:38:04.132Z,21.24
2023-04-24T08:40:35.706Z,21.40
2023-04-24T08:43:05.991Z,21.51
2023-04-24T08:45:34.478Z,21.64
2023-04-24T08:48:03.782Z,21.80
2023-04-24T08:50:32.947Z,21.82
2023-04-24T08:53:03.477Z,21.71
2023-04-24T08:55:34.404Z,21.54
2023-04-24T08:58:03.601Z,21.41
2023-04-24T09:00:32.279Z,21.31
2023-04-24T09:03:02.951Z,21.24
2023-04-24T09:05:31.503Z,21.22
2023-04-24T09:08:02.403Z,21.31
2023-04-24T09:10:31.636Z,21.43
2023-04-24T09:13:02.344Z,21.50
2023-04-24T09:15:30.439Z,21.52
2023-04-24T09:17:58.552Z,21.56
2023-04-24T09:20:26.506Z,21.64
2023-04-24T09:23:00.703Z,21.75
2023-04-24T09:25:37.074Z,21.85
2023-04-24T09:28:06.859Z,21.87
2023-04-24T09:30:34.629Z,22.00
2023-04-24T09:33:16.611Z,22.24
2023-04-24T09:35:53.443Z,22.61
2023-04-24T09:38:32.762Z,23.11
2023-04-24T09:41:06.025Z,23.70
2023-04-24T09:43:34.559Z,24.13
2023-04-24T09:46:08.439Z,24.45
2023-04-24T09:48:38.610Z,24.87
2023-04-24T09:51:16.961Z,25.15
2023-04-24T09:53:48.442Z,25.55
2023-04-24T09:56:16.822Z,25.77
2023-04-24T09:58:44.591Z,25.92
2023-04-24T10:01:12.592Z,26.06
2023-04-24T10:03:43.657Z,26.25
2023-04-24T10:06:12.815Z,26.33
2023-04-24T10:08:40.735Z,26.17
2023-04-24T10:11:08.898Z,25.85
2023-04-24T10:13:37.128Z,25.51
2023-04-24T10:16:05.512Z,25.13
2023-04-24T10:18:33.816Z,24.73
2023-04-24T10:21:02.388Z,24.35
2023-04-24T10:23:31.304Z,24.03
2023-04-24T10:25:59.967Z,23.75
2023-04-24T10:28:29.391Z,23.53
2023-04-24T10:30:58.271Z,23.30
2023-04-24T10:33:27.657Z,23.12
2023-04-24T10:35:56.503Z,23.13
2023-04-24T10:38:28.037Z,23.42
2023-04-24T10:41:09.450Z,23.94
2023-04-24T10:43:37.720Z,24.58
2023-04-24T10:46:07.305Z,25.18
2023-04-24T10:48:35.506Z,25.71
2023-04-24T10:51:03.478Z,26.21
2023-04-24T10:53:31.828Z,26.66
2023-04-24T10:55:59.499Z,27.13
2023-04-24T10:58:53.500Z,27.53
2023-04-24T11:01:30.500Z,27.95
2023-04-24T11:04:04.272Z,28.40
2023-04-24T11:06:36.082Z,28.69
2023-04-24T11:09:08.720Z,28.85
2023-04-24T11:11:38.532Z,28.96
2023-04-24T11:14:08.032Z,29.08
2023-04-24T11:16:52.299Z,29.24
2023-04-24T11:19:25.450Z,29.35
2023-04-24T11:21:57.243Z,29.30
2023-04-24T11:24:38.252Z,29.23
2023-04-24T11:27:14.843Z,29.22
2023-04-24T11:29:58.145Z,29.33
2023-04-24T11:32:42.815Z,29.39
2023-04-24T11:35:26.217Z,29.46
2023-04-24T11:40:26.815Z,29.37
2023-04-24T11:42:58.390Z,29.34
2023-04-24T11:45:29.114Z,29.37
2023-04-24T11:47:58.106Z,29.32
2023-04-24T11:50:29.556Z,29.10
2023-04-24T11:52:57.771Z,28.98
2023-04-24T11:55:29.905Z,28.84
2023-04-24T11:57:59.706Z,28.63
2023-04-24T12:00:32.769Z,28.34
2023-04-24T12:03:13.365Z,28.04
2023-04-24T12:05:42.166Z,27.88
2023-04-24T12:08:10.534Z,27.69
2023-04-24T12:10:38.520Z,27.32
2023-04-24T12:13:06.651Z,26.94
2023-04-24T12:15:34.771Z,26.51
2023-04-24T12:18:02.816Z,26.24
2023-04-24T12:20:33.403Z,26.06
2023-04-24T12:23:02.299Z,25.85
2023-04-24T12:25:32.900Z,25.60
2023-04-24T12:28:06.956Z,25.29
2023-04-24T12:30:39.421Z,24.82
2023-04-24T12:33:07.269Z,24.28
2023-04-24T12:35:36.823Z,23.78
2023-04-24T12:38:09.148Z,23.28
2023-04-24T12:40:37.218Z,22.90
2023-04-24T12:43:20.704Z,22.51
2023-04-24T12:45:49.507Z,22.08
2023-04-24T12:48:17.479Z,21.74
2023-04-24T12:50:46.752Z,21.43
2023-04-24T12:53:16.399Z,21.16
2023-04-24T12:55:45.747Z,21.00
2023-04-24T12:58:14.161Z,20.89
2023-04-24T13:00:44.472Z,20.80
2023-04-24T13:03:13.307Z,20.82
2023-04-24T13:05:42.216Z,20.81
2023-04-24T13:08:10.355Z,20.75
2023-04-24T13:10:38.253Z,20.64
2023-04-24T13:13:06.087Z,20.46
2023-04-24T13:15:33.968Z,20.37
2023-04-24T13:18:02.037Z,20.36
2023-04-24T13:20:30.237Z,20.33
2023-04-24T13:22:58.051Z,20.38
2023-04-24T13:25:26.165Z,20.52
2023-04-24T13:27:53.900Z,20.75
2023-04-24T13:30:21.910Z,21.03
2023-04-24T13:32:49.657Z,21.24
2023-04-24T13:35:17.510Z,21.42
2023-04-24T13:37:45.477Z,21.52
2023-04-24T13:40:13.329Z,21.54
2023-04-24T13:42:43.934Z,21.39
2023-04-24T13:45:24.170Z,21.24
2023-04-24T13:47:54.755Z,21.25
2023-04-24T13:50:23.050Z,21.33
2023-04-24T13:52:51.619Z,21.47
2023-04-24T13:55:19.430Z,21.59
2023-04-24T13:57:47.368Z,21.66
2023-04-24T14:00:16.146Z,21.68
2023-04-24T14:02:44.147Z,21.74
2023-04-24T14:05:12.455Z,21.84
2023-04-24T14:07:40.333Z,21.91
2023-04-24T14:10:08.568Z,22.04
2023-04-24T14:12:36.349Z,22.23
2023-04-24T14:15:05.932Z,22.46
2023-04-24T14:17:33.731Z,22.68
2023-04-24T14:20:01.713Z,22.82
2023-04-24T14:22:29.567Z,22.88
2023-04-24T14:24:57.431Z,22.81
2023-04-24T14:27:27.214Z,22.65
2023-04-24T14:29:55.063Z,22.59
2023-04-24T14:32:22.904Z,22.62
2023-04-24T14:34:50.714Z,22.57
2023-04-24T14:37:18.612Z,22.49
2023-04-24T14:39:56.234Z,22.36
2023-04-24T14:42:35.072Z,22.20
2023-04-24T14:45:03.475Z,22.04
2023-04-24T14:47:31.526Z,21.94
2023-04-24T14:49:59.563Z,21.86
2023-04-24T14:52:27.436Z,21.78
2023-04-24T14:54:55.790Z,21.71
2023-04-24T14:57:24.349Z,21.62
2023-04-24T14:59:52.421Z,21.53
2023-04-24T15:04:49.251Z,21.37
2023-04-24T15:07:17.163Z,21.28
2023-04-24T15:09:44.973Z,21.20
2023-04-24T15:12:14.351Z,21.10
2023-04-24T15:14:42.376Z,21.03
2023-04-24T15:17:10.389Z,20.97
2023-04-24T15:19:38.201Z,20.93
2023-04-24T15:22:06.091Z,20.89
2023-04-24T15:24:33.823Z,20.86
2023-04-24T15:27:02.714Z,20.81
2023-04-24T15:29:30.748Z,20.74
2023-04-24T15:31:58.919Z,20.68
2023-04-24T15:34:26.725Z,20.62
2023-04-24T15:36:54.647Z,20.57
2023-04-24T15:39:25.315Z,20.53
2023-04-24T15:41:54.163Z,20.49
2023-04-24T15:44:22.872Z,20.48
2023-04-24T15:46:52.443Z,20.45
2023-04-24T15:49:20.206Z,20.41
2023-04-24T15:51:48.032Z,20.35
2023-04-24T15:54:15.864Z,20.25
2023-04-24T15:56:45.369Z,20.18
2023-04-24T15:59:13.369Z,20.12
2023-04-24T16:01:41.294Z,20.06
2023-04-24T16:04:09.233Z,20.00
2023-04-24T16:06:37.293Z,19.97
2023-04-24T16:09:05.165Z,19.94
2023-04-24T16:11:33.909Z,19.90
2023-04-24T16:14:01.910Z,19.86
2023-04-24T16:16:29.811Z,19.83
2023-04-24T16:18:57.958Z,19.79
2023-04-24T16:21:25.684Z,19.75
2023-04-24T16:23:53.546Z,19.70
2023-04-24T16:26:21.649Z,19.63
2023-04-24T16:28:49.669Z,19.58
2023-04-24T16:31:18.055Z,19.54
2023-04-24T16:33:45.887Z,19.50
2023-04-24T16:36:13.618Z,19.46
2023-04-24T16:38:41.344Z,19.41
2023-04-24T16:41:09.293Z,19.40
2023-04-24T16:43:37.308Z,19.39
2023-04-24T16:46:05.245Z,19.37
2023-04-24T16:48:33.550Z,19.33
2023-04-24T16:51:01.502Z,19.27
2023-04-24T16:53:29.272Z,19.21
2023-04-24T16:55:57.135Z,19.14
2023-04-24T16:58:24.939Z,19.06
2023-04-24T17:00:52.777Z,18.97
2023-04-24T17:03:21.029Z,18.88
2023-04-24T17:05:49.758Z,18.80
2023-04-24T17:08:17.983Z,18.71
2023-04-24T17:10:46.966Z,18.62
2023-04-24T17:13:15.105Z,18.51
2023-04-24T17:15:43.057Z,18.40
2023-04-24T17:18:11.359Z,18.30
2023-04-24T17:20:39.347Z,18.19
2023-04-24T17:23:07.264Z,18.06
2023-04-24T17:25:34.996Z,17.90
2023-04-24T17:28:02.978Z,17.72
2023-04-24T17:30:30.788Z,17.54
2023-04-24T17:32:58.579Z,17.35
2023-04-24T17:35:26.472Z,17.19
2023-04-24T17:37:54.753Z,17.05
2023-04-24T17:40:22.888Z,16.92
2023-04-24T17:42:51.052Z,16.81
2023-04-24T17:45:19.496Z,16.66
2023-04-24T17:47:47.415Z,16.52
2023-04-24T17:50:15.984Z,16.39
2023-04-24T17:52:43.819Z,16.27
2023-04-24T17:55:11.638Z,16.15
2023-04-24T17:57:39.620Z,16.04
2023-04-24T18:00:07.983Z,15.92
2023-04-24T18:02:36.586Z,15.79
2023-04-24T18:05:05.094Z,15.66
2023-04-24T18:07:34.101Z,15.52
2023-04-24T18:10:02.002Z,15.39
2023-04-24T18:12:29.773Z,15.27
2023-04-24T18:15:12.826Z,15.19
2023-04-24T18:17:42.044Z,15.10
2023-04-24T18:20:11.484Z,15.02
2023-04-24T18:22:39.709Z,14.92
2023-04-24T18:25:08.220Z,14.83
2023-04-24T18:27:36.857Z,14.71
2023-04-24T18:30:06.719Z,14.59
2023-04-24T18:32:35.127Z,14.48
2023-04-24T18:35:03.974Z,14.36
2023-04-24T18:37:33.559Z,14.25
2023-04-24T18:40:02.498Z,14.15
2023-04-24T18:42:30.299Z,14.05
2023-04-24T18:45:01.679Z,13.95
2023-04-24T18:47:29.637Z,13.84
2023-04-24T18:49:57.400Z,13.73
2023-04-24T18:52:25.983Z,13.63
2023-04-24T18:54:53.782Z,13.52
2023-04-24T18:57:21.653Z,13.42
2023-04-24T18:59:49.617Z,13.31
2023-04-24T19:02:17.691Z,13.23
2023-04-24T19:04:45.842Z,13.16
2023-04-24T19:07:16.405Z,13.13
2023-04-24T19:09:44.329Z,13.12
2023-04-24T19:12:12.111Z,13.13
2023-04-24T19:14:40.006Z,13.15
2023-04-24T19:17:10.105Z,13.16
2023-04-24T19:19:38.246Z,13.18
2023-04-24T19:22:07.882Z,13.20
2023-04-24T19:24:36.116Z,13.23
2023-04-24T19:27:03.929Z,13.27
2023-04-24T19:29:32.079Z,13.30
2023-04-24T19:31:59.968Z,13.35
2023-04-24T19:34:29.407Z,13.36
2023-04-24T19:36:57.132Z,13.40
2023-04-24T19:39:25.137Z,13.48
2023-04-24T19:41:52.994Z,13.52
2023-04-24T19:44:20.932Z,13.55
2023-04-24T19:46:48.675Z,13.58
2023-04-24T19:49:17.132Z,13.58
2023-04-24T19:51:44.854Z,13.55
2023-04-24T19:54:13.112Z,13.50
2023-04-24T19:56:41.034Z,13.44
2023-04-24T19:59:08.926Z,13.38
2023-04-24T20:01:36.851Z,13.31
2023-04-24T20:04:07.814Z,13.23
2023-04-24T20:06:35.781Z,13.16
2023-04-24T20:09:05.901Z,13.10
2023-04-24T20:11:34.002Z,13.04
2023-04-24T20:14:03.698Z,12.98
2023-04-24T20:16:31.989Z,12.91
2023-04-24T20:18:59.939Z,12.86
2023-04-24T20:21:28.642Z,12.83
2023-04-24T20:23:56.857Z,12.80
2023-04-24T20:26:24.690Z,12.78
2023-04-24T20:28:52.652Z,12.79
2023-04-24T20:31:21.343Z,12.82
2023-04-24T20:33:49.198Z,12.85
2023-04-24T20:36:17.014Z,12.87
2023-04-24T20:38:44.730Z,12.88
2023-04-24T20:41:12.758Z,12.87
2023-04-24T20:43:40.820Z,12.86
2023-04-24T20:46:08.876Z,12.85
2023-04-24T20:48:36.716Z,12.85
2023-04-24T20:51:04.589Z,12.87
2023-04-24T20:53:32.330Z,12.89
2023-04-24T20:56:00.183Z,12.91
2023-04-24T20:58:28.152Z,12.92
2023-04-24T21:00:55.990Z,12.93
2023-04-24T21:03:24.104Z,12.93
2023-04-24T21:05:51.946Z,12.95
2023-04-24T21:08:19.712Z,12.96
2023-04-24T21:10:47.521Z,12.97
2023-04-24T21:13:15.389Z,12.97
2023-04-24T21:15:43.556Z,12.97
2023-04-24T21:18:11.489Z,12.97
2023-04-24T21:20:39.415Z,12.95
2023-04-24T21:23:07.307Z,12.93
2023-04-24T21:25:36.869Z,12.90
2023-04-24T21:28:04.945Z,12.89
2023-04-24T21:30:32.868Z,12.88
2023-04-24T21:33:01.070Z,12.86
2023-04-24T21:35:29.016Z,12.83
2023-04-24T21:37:56.819Z,12.80
2023-04-24T21:40:24.649Z,12.76
2023-04-24T21:42:52.913Z,12.72
2023-04-24T21:45:20.843Z,12.68
2023-04-24T21:47:48.629Z,12.63
2023-04-24T21:50:16.568Z,12.58
2023-04-24T21:52:44.496Z,12.53
2023-04-24T21:55:12.198Z,12.50
2023-04-24T21:57:40.199Z,12.47
2023-04-24T22:00:08.718Z,12.44
2023-04-24T22:02:36.576Z,12.40
2023-04-24T22:05:05.497Z,12.37
2023-04-24T22:07:35.243Z,12.34
2023-04-24T22:10:04.711Z,12.30
2023-04-24T22:12:32.489Z,12.26
2023-04-24T22:15:01.066Z,12.22
2023-04-24T22:17:28.891Z,12.17
2023-04-24T22:19:57.406Z,12.13
2023-04-24T22:22:25.462Z,12.10
2023-04-24T22:24:53.462Z,12.06
2023-04-24T22:27:21.531Z,12.04
2023-04-24T22:29:49.273Z,12.01
2023-04-24T22:32:17.061Z,11.98
2023-04-24T22:34:44.894Z,11.94
2023-04-24T22:37:13.341Z,11.91
2023-04-24T22:39:41.158Z,11.89
2023-04-24T22:42:09.111Z,11.86
2023-04-24T22:44:36.988Z,11.83
2023-04-24T22:47:08.358Z,11.80
2023-04-24T22:49:36.524Z,11.77
2023-04-24T22:52:08.209Z,11.73
2023-04-24T22:54:35.992Z,11.70
2023-04-24T22:57:06.181Z,11.65
2023-04-24T22:59:33.967Z,11.62
2023-04-24T23:02:01.932Z,11.60
2023-04-24T23:04:30.281Z,11.57
2023-04-24T23:06:58.079Z,11.53
2023-04-24T23:09:25.828Z,11.49
2023-04-24T23:11:53.560Z,11.45
2023-04-24T23:14:21.872Z,11.41
2023-04-24T23:16:49.700Z,11.39
2023-04-24T23:19:17.463Z,11.36
2023-04-24T23:21:45.254Z,11.35
2023-04-24T23:24:14.089Z,11.34
2023-04-24T23:26:41.999Z,11.35
2023-04-24T23:29:09.918Z,11.35
2023-04-24T23:31:37.755Z,11.34
2023-04-24T23:37:20.979Z,11.29
2023-04-24T23:39:49.656Z,11.26
2023-04-24T23:42:17.608Z,11.23
2023-04-24T23:44:45.526Z,11.20
2023-04-24T23:47:13.436Z,11.16
2023-04-24T23:49:41.147Z,11.13
2023-04-24T23:52:08.993Z,11.11
2023-04-24T23:54:37.096Z,11.08
2023-04-24T23:57:04.961Z,11.05
2023-04-24T23:59:32.729Z,11.03
